Time;durP1;ratioP1;P1;durP2;ratioP2;P2;SDS_P1;SDS_P2;PMS_P1;PMS_P2;Temp;Humidity;BMP_temperature;BMP_pressure;BME280_temperature;BME280_humidity;BME280_pressure;Samples;Min_cycle;Max_cycle;Signal;HPM_P1;HPM_P2
2023/12/27 00:00:29;;;;;;;;;;;;;;;9.76;75.61;100533.31;1087030;54;1167;-79
2023/12/27 00:01:29;;;;;;;;;;;;;;;9.77;75.40;100535.03;1086629;47;1151;-79
2023/12/27 00:02:32;;;;;;;;;;;;;;;9.84;75.36;100538.88;1087361;46;1095;-79
2023/12/27 00:03:33;;;;;;;;;;;;;;;9.92;75.26;100534.75;1086971;54;1174;-79
2023/12/27 00:04:37;;;;;;;;;;;;;;;9.88;75.16;100531.44;1086592;54;1173;-79
2023/12/27 00:05:37;;;;;;;;;;;;;;;9.86;75.34;100535.22;1086759;54;1143;-79
2023/12/27 00:06:42;;;;;;;;;;;;;;;9.90;75.03;100536.69;1086722;47;1075;-79
2023/12/27 00:07:44;;;;;;;;;;;;;;;9.93;75.29;100534.59;1086659;54;1019;-78
2023/12/27 00:08:47;;;;;;;;;;;;;;;9.83;75.23;100534.50;1086823;54;1166;-79
2023/12/27 00:09:48;;;;;;;;;;;;;;;9.80;75.41;100534.78;1086946;54;1320;-79
2023/12/27 00:10:51;;;;;;;;;;;;;;;9.77;75.62;100529.69;1087019;54;1068;-80
2023/12/27 00:11:52;;;;;;;;;;;;;;;9.78;75.59;100531.38;1086366;47;1106;-81
2023/12/27 00:12:52;;;;;;;;;;;;;;;9.78;75.37;100527.84;1086911;54;1055;-79
2023/12/27 00:13:56;;;;;;;;;;;;;;;9.72;75.22;100528.38;1086714;47;1052;-79
2023/12/27 00:14:56;;;;;;;;;;;;;;;9.72;75.39;100526.56;1086779;54;1118;-79
2023/12/27 00:16:03;;;;;;;;;;;;;;;9.75;75.43;100525.47;1086546;54;1885;-79
2023/12/27 00:17:04;;;;;;;;;;;;;;;9.73;75.19;100522.06;1086194;54;1168;-80
2023/12/27 00:18:08;;;;;;;;;;;;;;;9.74;75.55;100524.59;1086624;47;1369;-79
2023/12/27 00:19:08;;;;;;;;;;;;;;;9.65;75.54;100515.53;1086714;54;1297;-79
2023/12/27 00:20:10;;;;;;;;;;;;;;;9.66;75.58;100513.72;1086851;54;1099;-79
2023/12/27 00:21:14;;;;;;;;;;;;;;;9.58;75.67;100508.16;1086817;54;1166;-78
2023/12/27 00:22:15;;;;;;;;;;;;;;;9.63;75.53;100505.97;1086894;47;1006;-79
2023/12/27 00:23:18;;;;;;;;;;;;;;;9.66;75.51;100511.03;1086720;47;1081;-80
2023/12/27 00:24:19;;;;;;;;;;;;;;;9.62;75.54;100510.44;1086692;54;971;-79
2023/12/27 00:25:20;;;;;;;;;;;;;;;9.72;75.57;100515.03;1086615;54;1107;-79
2023/12/27 00:26:24;;;;;;;;;;;;;;;9.69;75.29;100513.47;1086689;47;1102;-80
2023/12/27 00:27:25;;;;;;;;;;;;;;;9.72;75.30;100521.22;1086646;54;1071;-79
2023/12/27 00:28:28;;;;;;;;;;;;;;;9.68;75.35;100520.59;1086545;54;1067;-79
2023/12/27 00:29:29;;;;;;;;;;;;;;;9.74;75.46;100513.06;1086732;54;1291;-79
2023/12/27 00:30:32;;;;;;;;;;;;;;;9.75;75.47;100523.63;1086458;47;1195;-79
2023/12/27 00:31:36;;;;;;;;;;;;;;;9.78;75.10;100523.38;1087112;47;1040;-79
2023/12/27 00:32:36;;;;;;;;;;;;;;;9.80;75.14;100523.25;1086941;47;988;-79
2023/12/27 00:33:39;;;;;;;;;;;;;;;9.81;74.90;100531.13;1087489;54;1099;-78
2023/12/27 00:34:40;;;;;;;;;;;;;;;9.87;74.67;100534.25;1087230;54;988;-79
2023/12/27 00:35:44;;;;;;;;;;;;;;;9.84;74.79;100530.84;1087395;54;1863;-78
2023/12/27 00:36:47;;;;;;;;;;;;;;;9.88;74.77;100530.63;1087699;54;1497;-78
2023/12/27 00:37:50;;;;;;;;;;;;;;;9.83;74.89;100533.66;1087522;54;1506;-77
2023/12/27 00:38:51;;;;;;;;;;;;;;;9.84;74.76;100541.53;1087360;47;1032;-77
2023/12/27 00:39:54;;;;;;;;;;;;;;;9.83;74.52;100534.50;1087514;54;1475;-79
2023/12/27 00:40:55;;;;;;;;;;;;;;;9.80;74.89;100542.78;1087483;47;1157;-79
2023/12/27 00:41:58;;;;;;;;;;;;;;;9.74;74.75;100543.28;1086668;47;975;-78
2023/12/27 00:42:59;;;;;;;;;;;;;;;9.68;74.96;100538.47;1086666;47;1529;-78
2023/12/27 00:44:02;;;;;;;;;;;;;;;9.71;75.11;100532.00;1086933;47;1087;-78
2023/12/27 00:45:03;;;;;;;;;;;;;;;9.70;74.85;100535.66;1086582;54;1141;-78
2023/12/27 00:46:09;;;;;;;;;;;;;;;9.72;74.88;100539.06;1085925;54;968;-79
2023/12/27 00:47:12;;;;;;;;;;;;;;;9.70;75.20;100533.84;1085923;54;1071;-78
2023/12/27 00:48:15;;;;;;;;;;;;;;;9.74;74.83;100537.09;1086467;47;1084;-79
2023/12/27 00:49:16;;;;;;;;;;;;;;;9.77;75.06;100529.69;1086425;54;1486;-80
2023/12/27 00:50:17;;;;;;;;;;;;;;;9.65;75.29;100531.56;1087140;54;1438;-80
2023/12/27 00:51:20;;;;;;;;;;;;;;;9.75;74.96;100528.97;1087753;47;1141;-80
2023/12/27 00:52:23;;;;;;;;;;;;;;;9.80;75.09;100526.78;1087880;47;1347;-80
2023/12/27 00:53:26;;;;;;;;;;;;;;;9.83;74.62;100521.16;1087828;54;1039;-78
2023/12/27 00:54:27;;;;;;;;;;;;;;;9.90;74.49;100512.66;1088121;54;1037;-81
2023/12/27 00:55:28;;;;;;;;;;;;;;;9.94;74.42;100512.25;1088093;47;949;-81
2023/12/27 00:56:32;;;;;;;;;;;;;;;9.99;74.32;100509.19;1087821;47;1875;-80
2023/12/27 00:57:32;;;;;;;;;;;;;;;10.02;73.96;100511.59;1087925;47;892;-79
2023/12/27 00:58:36;;;;;;;;;;;;;;;10.05;74.05;100506.00;1087779;54;939;-78
2023/12/27 00:59:36;;;;;;;;;;;;;;;10.07;73.85;100503.19;1087916;47;1315;-79
2023/12/27 01:00:40;;;;;;;;;;;;;;;10.09;73.60;100506.59;1088074;47;904;-80
2023/12/27 01:01:41;;;;;;;;;;;;;;;10.12;73.86;100501.81;1087819;47;1003;-78
2023/12/27 01:02:47;;;;;;;;;;;;;;;10.14;73.67;100510.56;1087947;47;1024;-80
2023/12/27 01:03:47;;;;;;;;;;;;;;;10.17;73.79;100503.25;1087759;47;1059;-80
2023/12/27 01:04:52;;;;;;;;;;;;;;;10.17;73.67;100505.94;1087860;54;1159;-80
2023/12/27 01:05:54;;;;;;;;;;;;;;;10.17;73.56;100508.59;1087601;47;1058;-79
2023/12/27 01:06:57;;;;;;;;;;;;;;;10.18;73.37;100521.81;1087534;54;1151;-80
2023/12/27 01:07:58;;;;;;;;;;;;;;;10.08;73.44;100516.44;1087696;54;1088;-80
2023/12/27 01:09:02;;;;;;;;;;;;;;;10.19;73.43;100510.16;1087449;47;1375;-80
2023/12/27 01:10:03;;;;;;;;;;;;;;;10.18;73.60;100512.97;1087897;47;980;-79
2023/12/27 01:11:06;;;;;;;;;;;;;;;10.16;73.38;100521.09;1088082;54;1154;-79
2023/12/27 01:12:07;;;;;;;;;;;;;;;10.13;73.62;100510.69;1088007;47;978;-80
2023/12/27 01:13:10;;;;;;;;;;;;;;;10.11;73.42;100507.31;1087643;54;1072;-80
2023/12/27 01:14:11;;;;;;;;;;;;;;;10.03;73.59;100507.13;1087969;54;1101;-80
2023/12/27 01:15:14;;;;;;;;;;;;;;;10.00;73.55;100510.91;1087891;47;1059;-79
2023/12/27 01:16:15;;;;;;;;;;;;;;;9.96;74.02;100506.78;1087702;47;1893;-80
2023/12/27 01:17:19;;;;;;;;;;;;;;;10.01;73.82;100506.38;1087916;54;980;-80
2023/12/27 01:18:22;;;;;;;;;;;;;;;10.02;73.80;100511.59;1087816;47;1078;-80
2023/12/27 01:19:26;;;;;;;;;;;;;;;10.02;73.99;100505.41;1087730;47;1371;-80
2023/12/27 01:20:27;;;;;;;;;;;;;;;10.03;74.19;100501.78;1087757;54;1059;-78
2023/12/27 01:21:30;;;;;;;;;;;;;;;10.07;73.99;100503.19;1087815;47;938;-80
2023/12/27 01:22:33;;;;;;;;;;;;;;;10.09;73.58;100502.09;1088096;54;1099;-81
2023/12/27 01:23:34;;;;;;;;;;;;;;;10.17;73.54;100497.91;1088070;54;1016;-81
2023/12/27 01:24:37;;;;;;;;;;;;;;;10.22;73.40;100501.03;1087946;47;1058;-80
2023/12/27 01:25:38;;;;;;;;;;;;;;;10.25;73.23;100495.44;1087962;54;1004;-78
2023/12/27 01:26:39;;;;;;;;;;;;;;;10.25;73.22;100503.44;1087889;47;1105;-80
2023/12/27 01:27:44;;;;;;;;;;;;;;;10.25;73.25;100500.78;1088090;54;1081;-81
2023/12/27 01:28:45;;;;;;;;;;;;;;;10.18;73.77;100504.97;1087919;47;976;-78
2023/12/27 01:29:48;;;;;;;;;;;;;;;10.17;73.57;100513.94;1088212;54;1377;-81
2023/12/27 01:30:49;;;;;;;;;;;;;;;10.15;73.65;100512.25;1088255;54;1070;-80
2023/12/27 01:31:50;;;;;;;;;;;;;;;10.19;73.57;100512.84;1088338;54;978;-78
2023/12/27 01:32:54;;;;;;;;;;;;;;;10.22;73.45;100511.72;1088295;46;1047;-78
2023/12/27 01:33:57;;;;;;;;;;;;;;;10.20;73.66;100513.69;1088300;54;964;-79
2023/12/27 01:35:00;;;;;;;;;;;;;;;10.17;73.59;100513.94;1088190;54;1094;-80
2023/12/27 01:36:05;;;;;;;;;;;;;;;10.19;73.70;100512.84;1088110;47;1871;-80
2023/12/27 01:37:06;;;;;;;;;;;;;;;10.18;73.75;100518.31;1088124;47;933;-80
2023/12/27 01:38:09;;;;;;;;;;;;;;;10.18;73.92;100518.31;1088088;54;992;-78
2023/12/27 01:39:10;;;;;;;;;;;;;;;10.22;73.41;100511.72;1088098;54;1298;-80
2023/12/27 01:40:11;;;;;;;;;;;;;;;10.25;73.47;100514.97;1088186;47;1075;-79
2023/12/27 01:41:14;;;;;;;;;;;;;;;10.25;73.50;100511.47;1088222;47;948;-80
2023/12/27 01:42:15;;;;;;;;;;;;;;;10.23;73.52;100519.63;1088108;54;1089;-79
2023/12/27 01:43:18;;;;;;;;;;;;;;;10.24;73.31;100515.13;1088165;47;913;-80
2023/12/27 01:44:19;;;;;;;;;;;;;;;10.18;73.59;100515.66;1088348;54;1111;-81
2023/12/27 01:45:22;;;;;;;;;;;;;;;10.23;73.58;100508.94;1088432;46;915;-81
2023/12/27 01:46:23;;;;;;;;;;;;;;;10.26;73.36;100508.66;1088209;47;1079;-79
2023/12/27 01:47:27;;;;;;;;;;;;;;;10.20;73.80;100503.84;1087840;47;947;-81
2023/12/27 01:48:27;;;;;;;;;;;;;;;10.27;73.28;100509.53;1087932;54;1088;-81
2023/12/27 01:49:33;;;;;;;;;;;;;;;10.26;73.45;100507.81;1088224;46;1384;-80
2023/12/27 01:50:34;;;;;;;;;;;;;;;10.22;73.71;100511.72;1087908;54;1433;-80
2023/12/27 01:51:38;;;;;;;;;;;;;;;10.25;73.37;100504.28;1087937;47;1152;-81
2023/12/27 01:52:39;;;;;;;;;;;;;;;10.28;73.36;100509.38;1088226;54;1087;-79
2023/12/27 01:53:42;;;;;;;;;;;;;;;10.30;73.31;100509.22;1087984;54;1052;-81
2023/12/27 01:54:43;;;;;;;;;;;;;;;10.33;73.20;100516.16;1087917;54;1115;-80
2023/12/27 01:55:47;;;;;;;;;;;;;;;10.36;73.29;100523.91;1087935;54;1418;-80
2023/12/27 01:56:52;;;;;;;;;;;;;;;10.39;72.90;100521.84;1088019;54;1861;-80
2023/12/27 01:57:53;;;;;;;;;;;;;;;10.37;73.19;100526.50;1087923;47;1075;-81
2023/12/27 01:58:56;;;;;;;;;;;;;;;10.32;73.41;100528.66;1088045;54;1362;-80
2023/12/27 01:59:57;;;;;;;;;;;;;;;10.30;73.31;100525.28;1088006;54;1076;-80
2023/12/27 02:01:01;;;;;;;;;;;;;;;10.37;73.43;100531.84;1087839;46;1083;-80
2023/12/27 02:02:02;;;;;;;;;;;;;;;10.33;73.26;100530.34;1087964;47;1134;-80
2023/12/27 02:03:05;;;;;;;;;;;;;;;10.32;73.53;100531.34;1088131;54;1121;-81
2023/12/27 02:04:06;;;;;;;;;;;;;;;10.29;73.55;100531.63;1087974;54;1044;-80
2023/12/27 02:05:12;;;;;;;;;;;;;;;10.22;73.70;100539.31;1088109;54;1106;-80
2023/12/27 02:06:13;;;;;;;;;;;;;;;10.15;73.89;100530.97;1088308;54;1143;-80
2023/12/27 02:07:14;;;;;;;;;;;;;;;10.12;74.13;100539.22;1088156;54;1400;-81
2023/12/27 02:08:18;;;;;;;;;;;;;;;9.99;74.57;100527.91;1088082;54;901;-80
2023/12/27 02:09:19;;;;;;;;;;;;;;;9.97;74.89;100530.69;1088305;54;1338;-80
2023/12/27 02:10:22;;;;;;;;;;;;;;;10.00;74.65;100534.94;1088139;47;1039;-79
2023/12/27 02:11:23;;;;;;;;;;;;;;;10.00;74.81;100529.59;1087875;54;1140;-80
2023/12/27 02:12:27;;;;;;;;;;;;;;;9.97;74.58;100530.69;1087376;47;968;-79
2023/12/27 02:13:28;;;;;;;;;;;;;;;9.98;74.55;100521.69;1086986;54;1019;-80
2023/12/27 02:14:31;;;;;;;;;;;;;;;9.91;74.77;100514.34;1087862;48;903;-78
2023/12/27 02:15:31;;;;;;;;;;;;;;;9.81;75.48;100514.25;1087823;54;1126;-78
2023/12/27 02:16:36;;;;;;;;;;;;;;;9.90;75.35;100518.00;1087098;54;1912;-78
2023/12/27 02:17:37;;;;;;;;;;;;;;;9.91;75.36;100519.69;1086800;47;1103;-78
2023/12/27 02:18:40;;;;;;;;;;;;;;;9.93;75.43;100505.22;1086637;54;1078;-78
2023/12/27 02:19:41;;;;;;;;;;;;;;;9.89;75.42;100524.31;1086683;54;1562;-80
2023/12/27 02:20:45;;;;;;;;;;;;;;;9.91;75.51;100520.53;1086830;47;1109;-79
2023/12/27 02:21:48;;;;;;;;;;;;;;;9.88;75.47;100519.94;1086742;47;1079;-79
2023/12/27 02:22:50;;;;;;;;;;;;;;;9.88;75.79;100511.91;1086113;47;1238;-79
2023/12/27 02:23:56;;;;;;;;;;;;;;;9.90;75.56;100512.66;1086520;47;1078;-77
2023/12/27 02:24:59;;;;;;;;;;;;;;;9.94;75.31;100514.06;1086468;54;1075;-78
2023/12/27 02:26:02;;;;;;;;;;;;;;;9.94;75.73;100509.59;1086512;54;1023;-78
2023/12/27 02:27:05;;;;;;;;;;;;;;;9.99;75.29;100506.53;1086799;47;931;-80
2023/12/27 02:28:06;;;;;;;;;;;;;;;10.04;75.29;100509.66;1086477;47;1126;-78
2023/12/27 02:29:07;;;;;;;;;;;;;;;10.09;75.11;100507.44;1086495;54;1277;-79
2023/12/27 02:30:18;;;;;;;;;;;;;;;10.05;75.06;100511.34;1086827;54;1087;-79
2023/12/27 02:31:19;;;;;;;;;;;;;;;10.01;75.33;100506.38;1086355;54;1202;-78
2023/12/27 02:32:23;;;;;;;;;;;;;;;10.00;75.24;100513.56;1086444;54;1102;-79
2023/12/27 02:33:32;;;;;;;;;;;;;;;10.00;75.29;100505.56;1086945;54;1079;-79
2023/12/27 02:34:35;;;;;;;;;;;;;;;9.99;75.42;100511.88;1088234;54;1103;-79
2023/12/27 02:35:44;;;;;;;;;;;;;;;9.99;75.37;100511.88;1088308;47;1055;-79
2023/12/27 02:36:48;;;;;;;;;;;;;;;10.05;75.35;100506.00;1088236;47;1868;-79
2023/12/27 02:37:49;;;;;;;;;;;;;;;10.03;75.79;100507.13;1088262;54;1267;-79
2023/12/27 02:38:52;;;;;;;;;;;;;;;10.04;75.50;100506.13;1087789;54;1066;-79
2023/12/27 02:39:53;;;;;;;;;;;;;;;10.02;75.65;100506.25;1086387;54;1377;-78
2023/12/27 02:40:59;;;;;;;;;;;;;;;10.03;75.51;100509.78;1086309;47;1134;-79
2023/12/27 02:42:00;;;;;;;;;;;;;;;10.08;75.13;100512.91;1086677;54;1111;-78
2023/12/27 02:43:03;;;;;;;;;;;;;;;10.03;75.52;100513.28;1086601;54;1088;-78
2023/12/27 02:44:04;;;;;;;;;;;;;;;10.12;75.33;100506.34;1086475;47;1146;-79
2023/12/27 02:45:08;;;;;;;;;;;;;;;10.13;75.37;100506.19;1086110;54;1151;-79
2023/12/27 02:46:09;;;;;;;;;;;;;;;10.21;74.99;100507.34;1086198;47;1209;-77
2023/12/27 02:47:10;;;;;;;;;;;;;;;10.16;74.91;100497.06;1086400;54;1186;-78
2023/12/27 02:48:13;;;;;;;;;;;;;;;10.11;75.40;100501.97;1086368;54;1060;-78
2023/12/27 02:49:14;;;;;;;;;;;;;;;10.11;75.06;100500.13;1086320;47;1366;-78
2023/12/27 02:50:17;;;;;;;;;;;;;;;10.10;74.93;100498.47;1086428;54;1143;-77
2023/12/27 02:51:17;;;;;;;;;;;;;;;10.15;75.16;100496.22;1086528;47;1263;-78
2023/12/27 02:52:21;;;;;;;;;;;;;;;10.17;74.83;100489.91;1085683;47;1167;-77
2023/12/27 02:53:23;;;;;;;;;;;;;;;10.15;75.02;100493.56;1086425;47;1115;-78
2023/12/27 02:54:27;;;;;;;;;;;;;;;10.17;74.67;100497.91;1086418;54;1167;-78
2023/12/27 02:55:27;;;;;;;;;;;;;;;10.22;74.97;100495.69;1086423;47;1503;-78
2023/12/27 02:56:34;;;;;;;;;;;;;;;10.21;74.71;100494.00;1086378;47;1127;-77
2023/12/27 02:57:35;;;;;;;;;;;;;;;10.20;74.49;100498.50;1086421;47;1186;-78
2023/12/27 02:58:40;;;;;;;;;;;;;;;10.20;74.61;100489.66;1085923;47;1147;-78
2023/12/27 02:59:41;;;;;;;;;;;;;;;10.12;74.84;100488.47;1085978;54;1459;-78
2023/12/27 03:00:46;;;;;;;;;;;;;;;10.14;74.89;100486.50;1085842;47;985;-78
2023/12/27 03:01:46;;;;;;;;;;;;;;;10.14;74.67;100486.50;1085970;54;1186;-78
2023/12/27 03:02:49;;;;;;;;;;;;;;;10.16;74.52;100481.03;1086169;54;1127;-78
2023/12/27 03:03:50;;;;;;;;;;;;;;;10.10;74.85;100487.78;1086031;54;1145;-78
2023/12/27 03:04:53;;;;;;;;;;;;;;;10.05;74.68;100487.31;1085870;47;1183;-78
2023/12/27 03:05:54;;;;;;;;;;;;;;;10.07;74.63;100492.50;1086494;47;1038;-78
2023/12/27 03:06:58;;;;;;;;;;;;;;;10.05;74.65;100495.31;1087414;54;1073;-78
2023/12/27 03:07:59;;;;;;;;;;;;;;;10.06;74.77;100493.50;1087582;54;1023;-79
2023/12/27 03:09:02;;;;;;;;;;;;;;;10.02;74.91;100487.56;1087906;54;1279;-78
2023/12/27 03:10:03;;;;;;;;;;;;;;;9.98;74.90;100494.97;1087864;54;1071;-78
2023/12/27 03:11:08;;;;;;;;;;;;;;;10.01;75.26;100496.56;1087585;54;1145;-78
2023/12/27 03:12:12;;;;;;;;;;;;;;;9.99;75.23;100487.84;1087399;47;1152;-77
2023/12/27 03:13:15;;;;;;;;;;;;;;;10.00;75.26;100486.84;1087391;54;1052;-78
2023/12/27 03:14:16;;;;;;;;;;;;;;;10.06;74.95;100490.84;1087267;54;1272;-78
2023/12/27 03:15:19;;;;;;;;;;;;;;;10.04;74.92;100487.44;1087187;47;995;-79
2023/12/27 03:16:20;;;;;;;;;;;;;;;10.01;75.04;100488.56;1087196;47;1091;-78
2023/12/27 03:17:21;;;;;;;;;;;;;;;9.92;75.54;100486.66;1087298;54;1893;-78
2023/12/27 03:18:24;;;;;;;;;;;;;;;9.90;75.43;100492.13;1087309;54;1165;-78
2023/12/27 03:19:25;;;;;;;;;;;;;;;9.93;75.37;100491.00;1087669;47;1305;-78
2023/12/27 03:20:25;;;;;;;;;;;;;;;9.94;75.49;100488.22;1087675;54;1336;-77
2023/12/27 03:21:29;;;;;;;;;;;;;;;9.92;75.38;100492.00;1087597;46;1096;-78
2023/12/27 03:22:29;;;;;;;;;;;;;;;9.88;75.51;100482.53;1087430;46;1090;-77
2023/12/27 03:23:32;;;;;;;;;;;;;;;9.90;75.66;100486.78;1087330;54;1063;-78
2023/12/27 03:24:33;;;;;;;;;;;;;;;9.98;75.45;100478.13;1087366;54;1098;-78
2023/12/27 03:25:36;;;;;;;;;;;;;;;9.91;75.63;100479.63;1087397;54;1087;-78
2023/12/27 03:26:37;;;;;;;;;;;;;;;9.98;75.37;100472.78;1087396;54;1204;-79
2023/12/27 03:27:43;;;;;;;;;;;;;;;9.97;75.36;100466.56;1087497;54;1055;-78
2023/12/27 03:28:44;;;;;;;;;;;;;;;10.07;75.02;100481.81;1087266;47;1020;-78
2023/12/27 03:29:47;;;;;;;;;;;;;;;10.08;75.02;100473.69;1087288;46;1338;-79
2023/12/27 03:30:48;;;;;;;;;;;;;;;10.10;75.17;100477.09;1087582;54;1179;-78
2023/12/27 03:31:51;;;;;;;;;;;;;;;10.13;74.76;100466.13;1087772;47;1052;-79
2023/12/27 03:32:51;;;;;;;;;;;;;;;10.19;74.60;100474.59;1087941;54;1110;-78
2023/12/27 03:33:52;;;;;;;;;;;;;;;10.24;74.71;100467.03;1087878;47;977;-78
2023/12/27 03:34:55;;;;;;;;;;;;;;;10.26;74.49;100460.56;1087849;47;1058;-79
2023/12/27 03:35:56;;;;;;;;;;;;;;;10.29;74.06;100465.66;1088033;54;1148;-78
2023/12/27 03:37:00;;;;;;;;;;;;;;;10.31;74.27;100457.50;1087883;54;1857;-78
2023/12/27 03:38:00;;;;;;;;;;;;;;;10.29;74.20;100462.16;1087753;47;1370;-78
2023/12/27 03:39:04;;;;;;;;;;;;;;;10.32;74.06;100464.53;1087971;54;1393;-78
2023/12/27 03:40:05;;;;;;;;;;;;;;;10.34;74.11;100462.56;1088015;47;1036;-78
2023/12/27 03:41:08;;;;;;;;;;;;;;;10.30;74.13;100455.78;1087842;47;1124;-78
2023/12/27 03:42:09;;;;;;;;;;;;;;;10.26;74.06;100455.22;1087969;54;1080;-79
2023/12/27 03:43:15;;;;;;;;;;;;;;;10.17;74.44;100455.19;1087983;54;1137;-78
2023/12/27 03:44:15;;;;;;;;;;;;;;;10.12;74.53;100456.41;1087838;54;1020;-78
2023/12/27 03:45:19;;;;;;;;;;;;;;;10.07;74.63;100449.75;1087838;47;1146;-78
2023/12/27 03:46:20;;;;;;;;;;;;;;;10.03;75.00;100459.88;1087923;54;1024;-78
2023/12/27 03:47:20;;;;;;;;;;;;;;;10.03;74.80;100457.19;1087790;47;1046;-79
2023/12/27 03:48:24;;;;;;;;;;;;;;;10.02;75.01;100457.34;1087720;54;1043;-79
2023/12/27 03:49:24;;;;;;;;;;;;;;;9.97;75.00;100458.56;1087911;47;1357;-78
2023/12/27 03:50:28;;;;;;;;;;;;;;;10.01;74.94;100456.50;1087979;54;880;-78
2023/12/27 03:51:28;;;;;;;;;;;;;;;9.99;75.14;100458.44;1087766;54;1013;-78
2023/12/27 03:52:32;;;;;;;;;;;;;;;10.03;75.16;100454.53;1087629;54;1224;-78
2023/12/27 03:53:33;;;;;;;;;;;;;;;10.01;75.23;100458.31;1087717;47;1056;-78
2023/12/27 03:54:33;;;;;;;;;;;;;;;10.01;74.90;100450.31;1087739;47;1055;-78
2023/12/27 03:55:36;;;;;;;;;;;;;;;9.99;74.86;100448.59;1087658;47;960;-78
2023/12/27 03:56:38;;;;;;;;;;;;;;;9.98;75.41;100446.06;1087696;46;1127;-78
2023/12/27 03:57:38;;;;;;;;;;;;;;;10.02;75.15;100446.66;1087751;47;1873;-78
2023/12/27 03:58:46;;;;;;;;;;;;;;;10.04;75.23;100444.69;1087770;47;988;-78
2023/12/27 03:59:47;;;;;;;;;;;;;;;10.04;75.07;100444.69;1087792;47;1287;-78
2023/12/27 04:00:50;;;;;;;;;;;;;;;10.08;75.12;100444.31;1087728;47;1056;-78
2023/12/27 04:01:51;;;;;;;;;;;;;;;10.14;74.69;100445.59;1087888;54;1425;-77
2023/12/27 04:02:54;;;;;;;;;;;;;;;10.17;74.57;100445.31;1087712;47;987;-77
2023/12/27 04:03:55;;;;;;;;;;;;;;;10.21;74.85;100449.44;1087593;47;1193;-79
2023/12/27 04:04:55;;;;;;;;;;;;;;;10.25;74.53;100450.00;1087653;47;1060;-78
2023/12/27 04:05:59;;;;;;;;;;;;;;;10.31;74.33;100446.81;1085609;54;1172;-77
2023/12/27 04:07:00;;;;;;;;;;;;;;;10.33;74.21;100442.19;1085304;54;1167;-78
2023/12/27 04:08:03;;;;;;;;;;;;;;;10.24;74.28;100446.50;1085668;51;1190;-78
2023/12/27 04:09:03;;;;;;;;;;;;;;;10.35;74.33;100439.34;1085739;54;1326;-77
2023/12/27 04:10:05;;;;;;;;;;;;;;;10.37;74.29;100442.75;1086166;47;1119;-78
2023/12/27 04:11:08;;;;;;;;;;;;;;;10.37;74.21;100449.00;1086172;54;1135;-78
2023/12/27 04:12:09;;;;;;;;;;;;;;;10.39;74.22;100449.69;1086087;47;1710;-78
2023/12/27 04:13:12;;;;;;;;;;;;;;;10.29;74.06;100438.94;1085986;47;1179;-79
2023/12/27 04:14:17;;;;;;;;;;;;;;;10.19;74.53;100443.38;1086117;54;1521;-78
2023/12/27 04:15:20;;;;;;;;;;;;;;;10.10;74.65;100434.34;1086130;54;1162;-78
2023/12/27 04:16:21;;;;;;;;;;;;;;;9.98;74.88;100430.03;1085866;54;1140;-78
2023/12/27 04:17:25;;;;;;;;;;;;;;;9.94;75.20;100440.16;1086481;47;1860;-78
2023/12/27 04:18:26;;;;;;;;;;;;;;;9.88;75.70;100435.31;1087306;47;1112;-78
2023/12/27 04:19:30;;;;;;;;;;;;;;;9.84;75.69;100439.25;1087398;54;1386;-78
2023/12/27 04:20:30;;;;;;;;;;;;;;;9.86;75.84;100437.28;1087689;47;1202;-78
2023/12/27 04:21:33;;;;;;;;;;;;;;;9.82;75.92;100434.00;1087883;47;1021;-79
2023/12/27 04:22:41;;;;;;;;;;;;;;;9.83;76.01;100438.38;1088023;54;1126;-78
2023/12/27 04:23:44;;;;;;;;;;;;;;;9.82;75.87;100430.50;1086584;47;1529;-78
2023/12/27 04:24:45;;;;;;;;;;;;;;;9.78;75.99;100434.41;1085501;54;1130;-79
2023/12/27 04:25:48;;;;;;;;;;;;;;;9.75;76.48;100429.34;1085653;47;1188;-77
2023/12/27 04:26:51;;;;;;;;;;;;;;;9.81;76.17;100440.34;1085717;47;1122;-78
2023/12/27 04:27:54;;;;;;;;;;;;;;;9.83;76.03;100435.69;1085515;54;1208;-78
2023/12/27 04:28:54;;;;;;;;;;;;;;;9.83;76.07;100435.69;1085311;47;1154;-78
2023/12/27 04:30:00;;;;;;;;;;;;;;;9.82;76.43;100442.03;1085296;47;1688;-78
2023/12/27 04:31:02;;;;;;;;;;;;;;;9.91;75.87;100435.06;1085442;54;1178;-78
2023/12/27 04:32:03;;;;;;;;;;;;;;;9.90;76.04;100435.19;1085657;47;968;-78
2023/12/27 04:33:07;;;;;;;;;;;;;;;9.91;75.79;100426.22;1085824;54;1431;-78
2023/12/27 04:34:07;;;;;;;;;;;;;;;9.99;75.66;100429.06;1085912;47;1185;-78
2023/12/27 04:35:09;;;;;;;;;;;;;;;10.03;75.49;100432.31;1085535;54;1210;-78
2023/12/27 04:36:13;;;;;;;;;;;;;;;10.07;75.66;100429.25;1085509;54;1144;-78
2023/12/27 04:37:14;;;;;;;;;;;;;;;10.05;75.42;100431.22;1085588;54;1849;-77
2023/12/27 04:38:17;;;;;;;;;;;;;;;10.10;75.12;100431.66;1085687;54;1114;-78
2023/12/27 04:39:18;;;;;;;;;;;;;;;10.08;75.15;100422.94;1085595;54;1366;-77
2023/12/27 04:40:21;;;;;;;;;;;;;;;10.12;75.10;100426.19;1085838;47;1129;-77
2023/12/27 04:41:21;;;;;;;;;;;;;;;10.10;75.28;100421.00;1085314;54;1223;-78
2023/12/27 04:42:25;;;;;;;;;;;;;;;10.04;75.25;100418.81;1085462;54;1205;-78
2023/12/27 04:43:25;;;;;;;;;;;;;;;10.06;75.23;100426.72;1085434;47;1088;-77
2023/12/27 04:44:28;;;;;;;;;;;;;;;10.09;75.06;100421.97;1085208;54;1146;-78
2023/12/27 04:45:32;;;;;;;;;;;;;;;10.12;74.93;100424.34;1085520;47;1177;-78
2023/12/27 04:46:37;;;;;;;;;;;;;;;10.02;75.30;100419.94;1085348;54;1501;-78
2023/12/27 04:47:39;;;;;;;;;;;;;;;10.03;75.32;100425.13;1084927;54;1158;-77
2023/12/27 04:48:39;;;;;;;;;;;;;;;10.03;75.42;100426.97;1084411;47;1024;-78
2023/12/27 04:49:43;;;;;;;;;;;;;;;10.04;75.09;100423.34;1084362;47;1378;-77
2023/12/27 04:50:43;;;;;;;;;;;;;;;10.04;75.13;100429.50;1084494;47;1155;-78
2023/12/27 04:51:47;;;;;;;;;;;;;;;10.07;75.23;100423.91;1084661;54;1180;-78
2023/12/27 04:52:47;;;;;;;;;;;;;;;10.08;75.07;100432.75;1084888;54;1446;-78
2023/12/27 04:53:48;;;;;;;;;;;;;;;10.09;75.02;100442.47;1084566;47;1550;-78
2023/12/27 04:54:51;;;;;;;;;;;;;;;10.11;75.16;100435.19;1084802;54;1180;-78
2023/12/27 04:55:52;;;;;;;;;;;;;;;10.10;74.89;100436.16;1084630;54;1155;-78
2023/12/27 04:56:56;;;;;;;;;;;;;;;9.98;75.75;100441.56;1086438;54;1469;-78
2023/12/27 04:57:56;;;;;;;;;;;;;;;9.96;75.53;100437.34;1087544;54;1856;-78
2023/12/27 04:59:00;;;;;;;;;;;;;;;9.99;75.69;100437.09;1087296;54;1486;-78
2023/12/27 05:00:00;;;;;;;;;;;;;;;9.98;75.88;100440.72;1086979;47;1023;-79
2023/12/27 05:01:04;;;;;;;;;;;;;;;9.99;75.83;100439.75;1086525;47;1144;-77
2023/12/27 05:02:08;;;;;;;;;;;;;;;10.03;75.84;100437.66;1086374;47;1110;-78
2023/12/27 05:03:08;;;;;;;;;;;;;;;9.98;75.71;100438.91;1086377;47;956;-79
2023/12/27 05:04:09;;;;;;;;;;;;;;;9.97;75.91;100442.53;1086698;54;1106;-78
2023/12/27 05:05:12;;;;;;;;;;;;;;;10.02;75.90;100446.66;1087134;47;1394;-78
2023/12/27 05:06:13;;;;;;;;;;;;;;;10.13;75.65;100450.09;1086732;54;1505;-78
2023/12/27 05:07:17;;;;;;;;;;;;;;;10.12;75.64;100432.38;1086783;54;1178;-78
2023/12/27 05:08:17;;;;;;;;;;;;;;;10.13;75.29;100439.41;1086680;54;1065;-78
2023/12/27 05:09:21;;;;;;;;;;;;;;;10.08;75.59;100438.97;1086904;54;1303;-78
2023/12/27 05:10:21;;;;;;;;;;;;;;;10.04;75.65;100429.50;1086915;47;990;-78
2023/12/27 05:11:24;;;;;;;;;;;;;;;10.08;75.40;100432.75;1086728;54;1124;-78
2023/12/27 05:12:25;;;;;;;;;;;;;;;10.11;75.26;100432.50;1087861;46;1185;-79
2023/12/27 05:13:30;;;;;;;;;;;;;;;10.12;75.27;100436.88;1088094;47;943;-80
2023/12/27 05:14:30;;;;;;;;;;;;;;;10.16;75.03;100435.63;1088182;46;1098;-79
2023/12/27 05:15:31;;;;;;;;;;;;;;;10.17;75.22;100433.81;1088036;46;1066;-79
2023/12/27 05:16:37;;;;;;;;;;;;;;;10.20;75.24;100433.53;1087992;47;1099;-80
2023/12/27 05:17:38;;;;;;;;;;;;;;;10.20;75.13;100433.53;1088088;54;1853;-78
2023/12/27 05:18:41;;;;;;;;;;;;;;;10.21;75.13;100441.41;1087969;47;1047;-79
2023/12/27 05:19:42;;;;;;;;;;;;;;;10.24;74.75;100434.97;1087888;54;1286;-79
2023/12/27 05:20:45;;;;;;;;;;;;;;;10.25;74.84;100442.00;1088051;47;1034;-78
2023/12/27 05:21:46;;;;;;;;;;;;;;;10.21;75.30;100440.56;1087412;54;1023;-78
2023/12/27 05:22:49;;;;;;;;;;;;;;;10.14;75.20;100435.75;1087711;47;1175;-78
2023/12/27 05:23:50;;;;;;;;;;;;;;;10.10;75.23;100449.50;1087608;54;1458;-78
2023/12/27 05:24:53;;;;;;;;;;;;;;;10.12;75.26;100444.88;1087680;47;964;-78
2023/12/27 05:25:56;;;;;;;;;;;;;;;10.07;75.52;100434.59;1088478;54;1129;-79
2023/12/27 05:27:01;;;;;;;;;;;;;;;10.08;75.66;100444.31;1088391;46;954;-79